Impacts TAF Board INFO
FOR SITUATIONAL AWARENESS. NOT TO BE USED FOR FLIGHT PLANNING PURPOSES.
IDs:

KMIA - Miami Intl, FL, US

Issued at 2132 UTC 25 May 2018
Updated at 2224 UTC 25 May 2018
Potential Impact None Slight Moderate High
Time2153Z 25/23Z 26/00Z 26/01Z 26/02Z 26/03Z 26/04Z 26/05Z 26/06Z 26/07Z 26/08Z 26/09Z 26/10Z 26/11Z>>
Type OBS PRVL PRVL PRVL PRVL PRVL PRVL PRVL PRVL PRVL PRVL PRVL PRVL PRVL
VIS 7 >6 >6 >6 >6 >6 >6 >6 >6 >6 >6 >6 >6 >6
CIG 70 35 35 35 120 120 120 120 120 120 35 35 35 35
Cover OVC BKN BKN BKN BKN BKN BKN BKN BKN BKN OVC OVC OVC OVC
FltCat VFR VFR VFR VFR VFR VFR VFR VFR VFR VFR VFR VFR VFR VFR
WX -RA SHRA SHRA SHRA VCSH VCSH VCSH VCSH VCSH VCSH SHRA SHRA SHRA SHRA
WDir 80 100 100 100 110 110 110 110 110 110 110 110 110 110
WSpd 4 7 7 7 7 7 7 7 7 7 4 4 4 4
WGst -- -- -- -- -- -- -- -- -- -- -- -- -- --

Raw TAF
KMIA 252132Z 2522/2624 10007KT P6SM SHRA BKN035 BKN080
  FM260200 11007KT P6SM VCSH FEW015 SCT030 BKN120
  FM260800 11004KT P6SM SHRA OVC035
  FM261400 12013KT P6SM SHRA VCTS OVC020CB


Raw METAR
KMIA 252153Z 08004KT 7SM -RA SCT015 BKN070 OVC100 24/22 A2997 RMK AO2 RAE12B30 SLP148 P0001 T02390217 $
KMIA 252053Z 08003KT 7SM RA FEW015 SCT030 OVC070 23/22 A2997 RMK AO2 SLP148 P0004 60012 T02330222 58011 $
KMIA 252046Z 10003KT 7SM RA SCT015 BKN030 OVC100 23/22 A2997 RMK AO2 P0003 T02280222 $
KMIA 252011Z 16009G17KT 5SM -RA BR BKN014 BKN030 OVC100 23/23 A2998 RMK AO2 P0000 T02330228 $
KMIA 251953Z 11008KT 5SM -RA BR SCT020 BKN030 OVC080 24/24 A2998 RMK AO2 SLP152 P0005 T02390239 $

METAR Board
Radar Display
Forecast Discussion

FOR SITUATIONAL AWARENESS. NOT TO BE USED FOR FLIGHT PLANNING PURPOSES.